createdAt,value
2022-10-22T00:00:56.190Z,12.12
2022-10-22T00:01:56.214Z,12.12
2022-10-22T00:02:56.175Z,12.11
2022-10-22T00:03:56.119Z,12.12
2022-10-22T00:04:56.120Z,12.11
2022-10-22T00:05:56.151Z,12.11
2022-10-22T00:06:56.094Z,12.14
2022-10-22T00:07:56.085Z,12.12
2022-10-22T00:08:56.125Z,12.14
2022-10-22T00:09:56.128Z,12.14
2022-10-22T00:10:56.164Z,12.12
2022-10-22T00:11:56.045Z,12.14
2022-10-22T00:12:56.077Z,12.14
2022-10-22T00:13:56.027Z,12.14
2022-10-22T00:14:56.061Z,12.15
2022-10-22T00:15:56.023Z,12.15
2022-10-22T00:16:56.093Z,12.17
2022-10-22T00:17:56.205Z,12.18
2022-10-22T00:18:56.036Z,12.17
2022-10-22T00:19:55.983Z,12.17
2022-10-22T00:20:55.993Z,12.21
2022-10-22T00:21:55.956Z,12.20
2022-10-22T00:22:55.965Z,12.21
2022-10-22T00:23:55.983Z,12.23
2022-10-22T00:24:55.907Z,12.26
2022-10-22T00:25:55.923Z,12.26
2022-10-22T00:26:55.883Z,12.30
2022-10-22T00:27:55.933Z,12.29
2022-10-22T00:28:55.992Z,12.32
2022-10-22T00:29:55.854Z,12.35
2022-10-22T00:30:55.863Z,12.35
2022-10-22T00:32:55.888Z,12.37
2022-10-22T00:33:55.969Z,12.36
2022-10-22T00:34:55.825Z,12.43
2022-10-22T00:35:55.832Z,12.43
2022-10-22T00:36:55.803Z,12.44
2022-10-22T00:37:55.757Z,12.40
2022-10-22T00:38:55.749Z,12.44
2022-10-22T00:39:55.742Z,12.43
2022-10-22T00:40:55.773Z,12.44
2022-10-22T00:41:55.717Z,12.47
2022-10-22T00:42:55.692Z,12.50
2022-10-22T00:43:55.712Z,12.48
2022-10-22T00:44:56.012Z,12.51
2022-10-22T00:45:55.759Z,12.48
2022-10-22T00:46:55.644Z,12.51
2022-10-22T00:47:55.646Z,12.53
2022-10-22T00:48:55.697Z,12.54
2022-10-22T00:49:55.707Z,12.55
2022-10-22T00:50:55.626Z,12.58
2022-10-22T00:51:55.616Z,12.58
2022-10-22T00:52:55.602Z,12.62
2022-10-22T00:53:55.591Z,12.61
2022-10-22T00:54:55.562Z,12.61
2022-10-22T00:55:55.581Z,12.62
2022-10-22T00:56:55.532Z,12.63
2022-10-22T00:57:55.536Z,12.61
2022-10-22T00:58:55.554Z,12.63
2022-10-22T00:59:55.538Z,12.62
2022-10-22T01:00:55.572Z,12.63
2022-10-22T01:01:55.615Z,12.63
2022-10-22T01:02:55.752Z,12.65
2022-10-22T01:03:55.513Z,12.66
2022-10-22T01:04:55.456Z,12.66
2022-10-22T01:05:55.500Z,12.69
2022-10-22T01:06:55.447Z,12.69
2022-10-22T01:07:55.459Z,12.68
2022-10-22T01:08:55.474Z,12.68
2022-10-22T01:09:55.429Z,12.66
2022-10-22T01:10:55.462Z,12.66
2022-10-22T01:11:55.421Z,12.69
2022-10-22T01:12:55.404Z,12.70
2022-10-22T01:13:55.354Z,12.68
2022-10-22T01:14:55.343Z,12.70
2022-10-22T01:15:55.355Z,12.70
2022-10-22T01:16:55.346Z,12.72
2022-10-22T01:17:55.322Z,12.70
2022-10-22T01:18:55.305Z,12.69
2022-10-22T01:19:55.332Z,12.69
2022-10-22T01:20:55.295Z,12.68
2022-10-22T01:21:55.285Z,12.68
2022-10-22T01:22:55.291Z,12.68
2022-10-22T01:23:55.324Z,12.66
2022-10-22T01:24:55.239Z,12.68
2022-10-22T01:25:55.267Z,12.68
2022-10-22T01:26:55.211Z,12.69
2022-10-22T01:27:55.206Z,12.66
2022-10-22T01:28:55.202Z,12.68
2022-10-22T01:29:55.180Z,12.63
2022-10-22T01:30:55.184Z,12.68
2022-10-22T01:31:55.171Z,12.66
2022-10-22T01:32:55.160Z,12.65
2022-10-22T01:33:55.145Z,12.63
2022-10-22T01:34:55.123Z,12.65
2022-10-22T01:35:55.119Z,12.65
2022-10-22T01:36:55.096Z,12.65
2022-10-22T01:37:55.094Z,12.66
2022-10-22T01:38:55.117Z,12.65
2022-10-22T01:39:55.149Z,12.65
2022-10-22T01:40:55.070Z,12.65
2022-10-22T01:41:55.557Z,12.65
2022-10-22T01:42:55.048Z,12.65
2022-10-22T01:43:55.047Z,12.63
2022-10-22T01:44:55.024Z,12.63
2022-10-22T01:45:55.001Z,12.62
2022-10-22T01:46:55.034Z,12.62
2022-10-22T01:47:54.986Z,12.61
2022-10-22T01:48:54.991Z,12.61
2022-10-22T01:49:54.976Z,12.62
2022-10-22T01:50:54.965Z,12.61
2022-10-22T01:51:54.964Z,12.58
2022-10-22T01:52:54.922Z,12.57
2022-10-22T01:53:54.913Z,12.57
2022-10-22T01:54:54.902Z,12.55
2022-10-22T01:55:54.883Z,12.53
2022-10-22T01:56:54.912Z,12.54
2022-10-22T01:57:54.878Z,12.51
2022-10-22T01:58:54.865Z,12.54
2022-10-22T01:59:54.851Z,12.50
2022-10-22T02:00:54.932Z,12.50
2022-10-22T02:01:54.850Z,12.50
2022-10-22T02:02:54.833Z,12.50
2022-10-22T02:03:54.814Z,12.47
2022-10-22T02:04:54.812Z,12.48
2022-10-22T02:05:54.803Z,12.47
2022-10-22T02:06:54.770Z,12.44
2022-10-22T02:07:54.762Z,12.44
2022-10-22T02:08:54.849Z,12.45
2022-10-22T02:09:54.732Z,12.44
2022-10-22T02:10:54.792Z,12.44
2022-10-22T02:11:54.750Z,12.40
2022-10-22T02:12:54.712Z,12.39
2022-10-22T02:13:54.707Z,12.40
2022-10-22T02:14:54.681Z,12.39
2022-10-22T02:15:54.699Z,12.37
2022-10-22T02:16:54.670Z,12.37
2022-10-22T02:17:54.711Z,12.37
2022-10-22T02:18:54.691Z,12.37
2022-10-22T02:19:54.659Z,12.35
2022-10-22T02:20:54.696Z,12.35
2022-10-22T02:21:54.632Z,12.32
2022-10-22T02:22:54.618Z,12.33
2022-10-22T02:23:54.582Z,12.32
2022-10-22T02:24:54.585Z,12.30
2022-10-22T02:25:54.620Z,12.29
2022-10-22T02:26:54.560Z,12.29
2022-10-22T02:27:54.559Z,12.28
2022-10-22T02:28:54.537Z,12.28
2022-10-22T02:29:54.527Z,12.26
2022-10-22T02:30:54.531Z,12.25
2022-10-22T02:31:54.495Z,12.25
2022-10-22T02:32:54.501Z,12.25
2022-10-22T02:33:54.506Z,12.21
2022-10-22T02:34:54.471Z,12.23
2022-10-22T02:35:54.460Z,12.21
2022-10-22T02:36:54.451Z,12.20
2022-10-22T02:37:54.432Z,12.21
2022-10-22T02:38:54.442Z,12.20
2022-10-22T02:39:54.420Z,12.17
2022-10-22T02:40:54.431Z,12.18
2022-10-22T02:41:54.388Z,12.15
2022-10-22T02:42:54.403Z,12.17
2022-10-22T02:43:54.375Z,12.15
2022-10-22T02:44:54.370Z,12.14
2022-10-22T02:45:54.362Z,12.12
2022-10-22T02:46:54.340Z,12.14
2022-10-22T02:47:54.322Z,12.12
2022-10-22T02:48:54.324Z,12.11
2022-10-22T02:49:54.300Z,12.08
2022-10-22T02:50:54.319Z,12.10
2022-10-22T02:51:54.317Z,12.10
2022-10-22T02:52:54.278Z,12.07
2022-10-22T02:53:54.260Z,12.03
2022-10-22T02:54:54.249Z,12.03
2022-10-22T02:55:54.251Z,12.02
2022-10-22T02:56:54.245Z,12.02
2022-10-22T02:57:54.418Z,12.03
2022-10-22T02:58:54.217Z,11.99
2022-10-22T02:59:54.201Z,11.96
2022-10-22T03:00:54.232Z,11.97
2022-10-22T03:01:54.179Z,11.95
2022-10-22T03:02:54.192Z,11.95
2022-10-22T03:03:54.153Z,11.91
2022-10-22T03:04:54.149Z,11.91
2022-10-22T03:05:54.145Z,11.91
2022-10-22T03:06:54.131Z,11.88
2022-10-22T03:07:54.118Z,11.88
2022-10-22T03:08:54.130Z,11.85
2022-10-22T03:09:54.122Z,11.86
2022-10-22T03:10:54.220Z,11.81
2022-10-22T03:11:54.081Z,11.81
2022-10-22T03:12:54.064Z,11.80
2022-10-22T03:13:54.081Z,11.78
2022-10-22T03:14:54.033Z,11.77
2022-10-22T03:15:54.041Z,11.76
2022-10-22T03:16:54.028Z,11.77
2022-10-22T03:17:53.999Z,11.71
2022-10-22T03:18:54.028Z,11.70
2022-10-22T03:19:54.000Z,11.70
2022-10-22T03:20:53.989Z,11.70
2022-10-22T03:21:53.949Z,11.67
2022-10-22T03:22:53.952Z,11.67
2022-10-22T03:23:53.940Z,11.62
2022-10-22T03:24:53.940Z,11.62
2022-10-22T03:25:53.965Z,11.59
2022-10-22T03:26:53.928Z,11.60
2022-10-22T03:27:53.901Z,11.58
2022-10-22T03:28:53.891Z,11.56
2022-10-22T03:29:53.870Z,11.53
2022-10-22T03:30:53.896Z,11.53
2022-10-22T03:31:53.910Z,11.52
2022-10-22T03:32:53.838Z,11.51
2022-10-22T03:33:53.829Z,11.51
2022-10-22T03:34:53.878Z,11.51
2022-10-22T03:35:53.807Z,11.49
2022-10-22T03:36:53.808Z,11.49
2022-10-22T03:37:53.793Z,11.44
2022-10-22T03:38:53.779Z,11.48
2022-10-22T03:39:53.778Z,11.43
2022-10-22T03:40:53.792Z,11.41
2022-10-22T03:41:53.791Z,11.40
2022-10-22T03:42:53.740Z,11.37
2022-10-22T03:43:53.740Z,11.37
2022-10-22T03:44:53.754Z,11.38
2022-10-22T03:45:53.742Z,11.34
2022-10-22T03:46:55.580Z,11.34
2022-10-22T03:47:53.679Z,11.33
2022-10-22T03:48:53.657Z,11.33
2022-10-22T03:49:53.670Z,11.30
2022-10-22T03:50:53.653Z,11.27
2022-10-22T03:51:53.661Z,11.27
2022-10-22T03:52:53.638Z,11.27
2022-10-22T03:53:53.630Z,11.23
2022-10-22T03:54:53.629Z,11.25
2022-10-22T03:55:53.621Z,11.22
2022-10-22T03:56:53.598Z,11.20
2022-10-22T03:57:53.574Z,11.19
2022-10-22T03:58:53.567Z,11.19
2022-10-22T03:59:53.545Z,11.16
2022-10-22T04:00:53.631Z,11.16
2022-10-22T04:01:53.535Z,11.16
2022-10-22T04:02:53.525Z,11.13
2022-10-22T04:03:53.514Z,11.13
2022-10-22T04:04:53.496Z,11.12
2022-10-22T04:05:53.478Z,11.08
2022-10-22T04:06:53.498Z,11.08
2022-10-22T04:07:53.486Z,11.08
2022-10-22T04:08:53.551Z,11.05
2022-10-22T04:09:53.448Z,11.02
2022-10-22T04:10:53.526Z,11.04
2022-10-22T04:11:53.457Z,11.04
2022-10-22T04:12:53.439Z,11.00
2022-10-22T04:13:53.406Z,11.00
2022-10-22T04:14:53.397Z,10.97
2022-10-22T04:15:53.395Z,10.94
2022-10-22T04:16:53.376Z,10.94
2022-10-22T04:17:53.375Z,10.94
2022-10-22T04:18:53.462Z,10.94
2022-10-22T04:19:53.364Z,10.92
2022-10-22T04:20:53.432Z,10.92
2022-10-22T04:21:53.349Z,10.90
2022-10-22T04:22:53.324Z,10.90
2022-10-22T04:23:53.312Z,10.84
2022-10-22T04:24:53.294Z,10.84
2022-10-22T04:25:53.286Z,10.84
2022-10-22T04:26:53.284Z,10.84
2022-10-22T04:27:53.272Z,10.83
2022-10-22T04:28:53.247Z,10.83
2022-10-22T04:29:53.237Z,10.82
2022-10-22T04:30:53.224Z,10.80
2022-10-22T04:31:53.244Z,10.77
2022-10-22T04:32:53.218Z,10.77
2022-10-22T04:33:53.175Z,10.77
2022-10-22T04:34:53.235Z,10.77
2022-10-22T04:35:53.175Z,10.76
2022-10-22T04:36:53.186Z,10.76
2022-10-22T04:37:53.222Z,10.75
2022-10-22T04:38:53.143Z,10.77
2022-10-22T04:39:53.124Z,10.76
2022-10-22T04:40:53.128Z,10.76
2022-10-22T04:41:53.096Z,10.77
2022-10-22T04:42:53.106Z,10.79
2022-10-22T04:43:53.140Z,10.77
2022-10-22T04:44:53.130Z,10.79
2022-10-22T04:45:53.107Z,10.80
2022-10-22T04:46:53.066Z,10.79
2022-10-22T04:47:53.167Z,10.82
2022-10-22T04:48:53.035Z,10.80
2022-10-22T04:49:53.056Z,10.82
2022-10-22T04:50:53.013Z,10.79
2022-10-22T04:51:53.029Z,10.82
2022-10-22T04:52:53.013Z,10.77
2022-10-22T04:53:53.087Z,10.79
2022-10-22T04:54:52.979Z,10.79
2022-10-22T04:55:52.946Z,10.76
2022-10-22T04:56:52.992Z,10.76
2022-10-22T04:57:52.983Z,10.72
2022-10-22T04:58:52.956Z,10.72
2022-10-22T04:59:52.927Z,10.71
2022-10-22T05:00:52.972Z,10.69
2022-10-22T05:01:52.909Z,10.69
2022-10-22T05:02:52.901Z,10.69
2022-10-22T05:03:52.895Z,10.68
2022-10-22T05:04:52.864Z,10.65
2022-10-22T05:05:52.862Z,10.64
2022-10-22T05:06:52.877Z,10.62
2022-10-22T05:07:52.849Z,10.58
2022-10-22T05:08:52.864Z,10.58
2022-10-22T05:09:52.807Z,10.57
2022-10-22T05:10:52.956Z,10.58
2022-10-22T05:11:52.794Z,10.53
2022-10-22T05:12:52.814Z,10.53
2022-10-22T05:13:52.764Z,10.51
2022-10-22T05:14:52.766Z,10.51
2022-10-22T05:15:52.846Z,10.49
2022-10-22T05:16:52.745Z,10.49
2022-10-22T05:17:52.758Z,10.46
2022-10-22T05:18:52.721Z,10.45
2022-10-22T05:19:52.730Z,10.45
2022-10-22T05:20:52.694Z,10.43
2022-10-22T05:21:52.684Z,10.45
2022-10-22T05:22:52.696Z,10.42
2022-10-22T05:23:52.708Z,10.39
2022-10-22T05:24:52.694Z,10.38
2022-10-22T05:25:52.691Z,10.36
2022-10-22T05:26:52.637Z,10.34
2022-10-22T05:27:55.156Z,10.36
2022-10-22T05:28:52.638Z,10.36
2022-10-22T05:29:52.601Z,10.36
2022-10-22T05:30:52.633Z,10.34
2022-10-22T05:31:52.575Z,10.33
2022-10-22T05:32:52.620Z,10.31
2022-10-22T05:33:52.557Z,10.31
2022-10-22T05:34:52.543Z,10.31
2022-10-22T05:35:52.550Z,10.28
2022-10-22T05:36:52.544Z,10.30
2022-10-22T05:37:52.562Z,10.28
2022-10-22T05:38:52.520Z,10.27
2022-10-22T05:40:01.762Z,10.28
2022-10-22T05:40:53.482Z,10.28
2022-10-22T05:41:52.474Z,10.28
2022-10-22T05:42:52.463Z,10.28
2022-10-22T05:43:52.449Z,10.30
2022-10-22T05:44:52.452Z,10.31
2022-10-22T05:45:52.434Z,10.31
2022-10-22T05:46:52.432Z,10.33
2022-10-22T05:47:52.415Z,10.30
2022-10-22T05:48:52.425Z,10.33
2022-10-22T05:49:52.382Z,10.36
2022-10-22T05:50:52.382Z,10.36
2022-10-22T05:51:52.380Z,10.36
2022-10-22T05:52:52.356Z,10.36
2022-10-22T05:53:52.352Z,10.36
2022-10-22T05:54:52.337Z,10.38
2022-10-22T05:55:52.377Z,10.36
2022-10-22T05:56:52.352Z,10.36
2022-10-22T05:57:52.306Z,10.36
2022-10-22T05:58:52.337Z,10.38
2022-10-22T05:59:52.365Z,10.36
2022-10-22T06:00:52.316Z,10.39
2022-10-22T06:01:52.330Z,10.36
2022-10-22T06:02:52.271Z,10.36
2022-10-22T06:03:52.236Z,10.33
2022-10-22T06:04:52.223Z,10.36
2022-10-22T06:05:52.207Z,10.33
2022-10-22T06:06:52.230Z,10.34
2022-10-22T06:07:52.203Z,10.34
2022-10-22T06:08:52.198Z,10.36
2022-10-22T06:09:52.210Z,10.33
2022-10-22T06:10:52.161Z,10.36
2022-10-22T06:11:52.165Z,10.34
2022-10-22T06:12:52.130Z,10.38
2022-10-22T06:13:52.137Z,10.36
2022-10-22T06:14:52.110Z,10.38
2022-10-22T06:15:52.111Z,10.36
2022-10-22T06:16:52.112Z,10.38
2022-10-22T06:17:52.094Z,10.38
2022-10-22T06:18:52.070Z,10.42
2022-10-22T06:19:52.097Z,10.41
2022-10-22T06:20:52.040Z,10.43
2022-10-22T06:21:52.059Z,10.46
2022-10-22T06:22:52.072Z,10.48
2022-10-22T06:23:52.029Z,10.53
2022-10-22T06:24:52.011Z,10.53
2022-10-22T06:25:51.994Z,10.57
2022-10-22T06:26:52.070Z,10.59
2022-10-22T06:27:51.984Z,10.64
2022-10-22T06:28:51.961Z,10.68
2022-10-22T06:29:51.961Z,10.68
2022-10-22T06:30:51.953Z,10.75
2022-10-22T06:31:51.952Z,10.76
2022-10-22T06:32:51.950Z,10.80
2022-10-22T06:33:51.915Z,10.84
2022-10-22T06:34:51.905Z,10.87
2022-10-22T06:35:51.901Z,10.87
2022-10-22T06:36:51.887Z,10.94
2022-10-22T06:37:51.927Z,10.95
2022-10-22T06:38:51.872Z,10.98
2022-10-22T06:39:51.849Z,11.05
2022-10-22T06:40:51.862Z,11.10
2022-10-22T06:41:51.878Z,11.13
2022-10-22T06:42:51.829Z,11.16
2022-10-22T06:43:51.844Z,11.19
2022-10-22T06:44:51.836Z,11.23
2022-10-22T06:45:51.809Z,11.26
2022-10-22T06:46:51.789Z,11.31
2022-10-22T06:47:51.816Z,11.35
2022-10-22T06:48:51.858Z,11.38
2022-10-22T06:49:51.759Z,11.40
2022-10-22T06:50:51.740Z,11.44
2022-10-22T06:51:51.745Z,11.44
2022-10-22T06:52:51.716Z,11.48
2022-10-22T06:53:51.758Z,11.51
2022-10-22T06:54:51.733Z,11.55
2022-10-22T06:55:51.721Z,11.55
2022-10-22T06:56:51.709Z,11.59
2022-10-22T06:57:51.678Z,11.62
2022-10-22T06:58:51.660Z,11.65
2022-10-22T06:59:51.906Z,11.67
2022-10-22T07:00:51.699Z,11.73
2022-10-22T07:01:51.752Z,11.76
2022-10-22T07:02:51.616Z,11.80
2022-10-22T07:03:51.603Z,11.85
2022-10-22T07:04:51.589Z,11.89
2022-10-22T07:05:51.578Z,11.93
2022-10-22T07:06:51.586Z,11.97
2022-10-22T07:07:51.566Z,12.00
2022-10-22T07:08:51.667Z,12.02
2022-10-22T07:09:51.610Z,12.05
2022-10-22T07:10:51.529Z,12.11
2022-10-22T07:11:51.530Z,12.11
2022-10-22T07:12:51.498Z,12.18
2022-10-22T07:13:51.487Z,12.18
2022-10-22T07:14:51.471Z,12.25
2022-10-22T07:15:51.471Z,12.28
2022-10-22T07:16:51.460Z,12.33
2022-10-22T07:17:51.459Z,12.36
2022-10-22T07:18:51.492Z,12.36
2022-10-22T07:19:52.103Z,12.39
2022-10-22T07:20:51.410Z,12.45
2022-10-22T07:21:51.422Z,12.51
2022-10-22T07:22:51.386Z,12.55
2022-10-22T07:23:51.379Z,12.61
2022-10-22T07:24:51.377Z,12.66
2022-10-22T07:25:51.403Z,12.72
2022-10-22T07:26:51.375Z,12.75
2022-10-22T07:27:51.333Z,12.84
2022-10-22T07:28:51.365Z,12.88
2022-10-22T07:29:51.314Z,12.98
2022-10-22T07:30:51.301Z,13.02
2022-10-22T07:31:51.357Z,13.08
2022-10-22T07:32:51.281Z,13.16
2022-10-22T07:33:51.277Z,13.26
2022-10-22T07:34:51.259Z,13.39
2022-10-22T07:35:51.248Z,13.49
2022-10-22T07:36:51.259Z,13.61
2022-10-22T07:37:51.226Z,13.73
2022-10-22T07:38:51.207Z,13.82
2022-10-22T07:39:52.331Z,13.89
2022-10-22T07:40:51.192Z,13.98
2022-10-22T07:41:51.207Z,14.04
2022-10-22T07:42:51.178Z,14.12
2022-10-22T07:43:51.166Z,14.19
2022-10-22T07:44:51.148Z,14.26
2022-10-22T07:45:51.210Z,14.31
2022-10-22T07:46:51.117Z,14.36
2022-10-22T07:47:51.161Z,14.43
2022-10-22T07:48:51.273Z,14.49
2022-10-22T07:49:51.097Z,14.48
2022-10-22T07:50:51.174Z,14.53
2022-10-22T07:51:51.086Z,14.53
2022-10-22T07:52:52.908Z,14.55
2022-10-22T07:53:51.148Z,14.56
2022-10-22T07:54:51.042Z,14.56
2022-10-22T07:55:51.048Z,14.58
2022-10-22T07:56:51.077Z,14.61
2022-10-22T07:57:51.053Z,14.62
2022-10-22T07:58:51.033Z,14.62
2022-10-22T07:59:50.991Z,14.67
2022-10-22T08:00:50.987Z,14.66
2022-10-22T08:01:51.036Z,14.67
2022-10-22T08:02:51.015Z,14.68
2022-10-22T08:03:50.958Z,14.70
2022-10-22T08:04:50.951Z,14.73
2022-10-22T08:05:50.966Z,14.74
2022-10-22T08:06:50.916Z,14.79
2022-10-22T08:07:50.960Z,14.82
2022-10-22T08:08:50.986Z,14.87
2022-10-22T08:09:50.898Z,14.93
2022-10-22T08:10:50.886Z,14.96
2022-10-22T08:11:50.877Z,14.99
2022-10-22T08:12:50.902Z,15.05
2022-10-22T08:13:50.896Z,15.12
2022-10-22T08:14:50.896Z,15.18
2022-10-22T08:15:52.467Z,15.23
2022-10-22T08:16:51.849Z,15.30
2022-10-22T08:17:51.068Z,15.41
2022-10-22T08:18:50.891Z,15.51
2022-10-22T08:19:50.839Z,15.66
2022-10-22T08:20:50.838Z,15.80
2022-10-22T08:21:50.909Z,15.98
2022-10-22T08:22:51.211Z,16.10
2022-10-22T08:23:50.770Z,16.26
2022-10-22T08:24:50.816Z,16.36
2022-10-22T08:25:50.756Z,16.44
2022-10-22T08:26:50.755Z,16.46
2022-10-22T08:27:50.896Z,16.41
2022-10-22T08:28:50.749Z,16.44
2022-10-22T08:29:50.728Z,16.43
2022-10-22T08:30:50.777Z,16.44
2022-10-22T08:31:50.763Z,16.43
2022-10-22T08:32:53.877Z,16.46
2022-10-22T08:33:50.822Z,16.50
2022-10-22T08:34:50.709Z,16.55
2022-10-22T08:35:50.719Z,16.59
2022-10-22T08:36:50.731Z,16.65
2022-10-22T08:37:50.765Z,16.66
2022-10-22T08:38:50.668Z,16.66
2022-10-22T08:39:50.620Z,16.64
2022-10-22T08:40:50.715Z,16.61
2022-10-22T08:41:50.598Z,16.61
2022-10-22T08:42:50.605Z,16.59
2022-10-22T08:43:50.587Z,16.55
2022-10-22T08:44:50.577Z,16.51
2022-10-22T08:45:50.579Z,16.50
2022-10-22T08:46:50.622Z,16.46
2022-10-22T08:47:50.527Z,16.44
2022-10-22T08:48:50.514Z,16.44
2022-10-22T08:49:50.531Z,16.47
2022-10-22T08:50:50.511Z,16.54
2022-10-22T08:51:50.480Z,16.62
2022-10-22T08:52:50.467Z,16.72
2022-10-22T08:53:50.461Z,16.82
2022-10-22T08:54:50.488Z,16.89
2022-10-22T08:55:50.472Z,16.91
2022-10-22T08:56:50.430Z,16.97
2022-10-22T08:57:52.419Z,17.02
2022-10-22T08:58:50.609Z,17.05
2022-10-22T08:59:50.429Z,17.12
2022-10-22T09:00:50.398Z,17.17
2022-10-22T09:01:50.420Z,17.23
2022-10-22T09:02:50.359Z,17.28
2022-10-22T09:03:50.347Z,17.32
2022-10-22T09:04:50.331Z,17.41
2022-10-22T09:06:53.486Z,17.63
2022-10-22T09:07:50.341Z,17.72
2022-10-22T09:08:50.352Z,17.87
2022-10-22T09:09:50.283Z,17.94
2022-10-22T09:10:50.319Z,18.03
2022-10-22T09:11:50.309Z,18.11
2022-10-22T09:12:50.239Z,18.19
2022-10-22T09:13:50.250Z,18.27
2022-10-22T09:14:50.221Z,18.37
2022-10-22T09:15:50.285Z,18.41
2022-10-22T09:16:50.512Z,18.39
2022-10-22T09:17:50.191Z,18.37
2022-10-22T09:18:50.860Z,18.28
2022-10-22T09:19:50.177Z,18.27
2022-10-22T09:20:50.150Z,18.30
2022-10-22T09:21:50.216Z,18.33
2022-10-22T09:22:50.129Z,18.36
2022-10-22T09:23:50.138Z,18.37
2022-10-22T09:24:50.168Z,18.34
2022-10-22T09:25:50.098Z,18.37
2022-10-22T09:26:50.088Z,18.48
2022-10-22T09:27:50.092Z,18.51
2022-10-22T09:28:50.101Z,18.63
2022-10-22T09:29:50.067Z,18.70
2022-10-22T09:30:50.108Z,18.74
2022-10-22T09:31:50.055Z,18.74
2022-10-22T09:32:50.077Z,18.73
2022-10-22T09:33:50.059Z,18.71
2022-10-22T09:34:50.008Z,18.71
2022-10-22T09:35:49.992Z,18.71
2022-10-22T09:36:49.988Z,18.68
2022-10-22T09:37:49.973Z,18.73
2022-10-22T09:38:49.957Z,18.71
2022-10-22T09:39:50.038Z,18.73
2022-10-22T09:40:49.939Z,18.73
2022-10-22T09:41:50.008Z,18.79
2022-10-22T09:42:49.976Z,18.74
2022-10-22T09:43:49.919Z,18.73
2022-10-22T09:44:49.910Z,18.81
2022-10-22T09:45:49.898Z,18.88
2022-10-22T09:46:49.879Z,18.89
2022-10-22T09:48:01.630Z,18.86
2022-10-22T09:48:50.904Z,18.78
2022-10-22T09:49:49.882Z,18.63
2022-10-22T09:50:49.913Z,18.55
2022-10-22T09:51:49.859Z,18.46
2022-10-22T09:52:49.904Z,18.37
2022-10-22T09:53:49.812Z,18.31
2022-10-22T09:54:49.812Z,18.27
2022-10-22T09:55:49.818Z,18.24
2022-10-22T09:57:15.150Z,18.24
2022-10-22T09:58:15.104Z,18.26
2022-10-22T09:59:15.065Z,18.27
2022-10-22T10:00:15.064Z,18.26
2022-10-22T10:01:15.051Z,18.27
2022-10-22T10:02:20.246Z,18.30
2022-10-22T10:03:16.063Z,18.33
2022-10-22T10:04:15.070Z,18.36
2022-10-22T10:05:15.003Z,18.42
2022-10-22T10:06:14.978Z,18.46
2022-10-22T10:07:14.976Z,18.52
2022-10-22T10:08:14.954Z,18.60
2022-10-22T10:09:15.013Z,18.68
2022-10-22T10:10:14.951Z,18.81
2022-10-22T10:11:14.952Z,18.89
2022-10-22T10:12:14.912Z,18.92
2022-10-22T10:13:14.903Z,18.96
2022-10-22T10:14:14.955Z,19.00
2022-10-22T10:15:14.921Z,19.04
2022-10-22T10:16:14.864Z,19.00
2022-10-22T10:17:14.854Z,18.98
2022-10-22T10:18:14.852Z,18.97
2022-10-22T10:19:14.833Z,19.00
2022-10-22T10:20:14.922Z,18.98
2022-10-22T10:22:14.818Z,19.15
2022-10-22T10:23:14.793Z,19.20
2022-10-22T10:24:14.822Z,19.23
2022-10-22T10:25:14.782Z,19.26
2022-10-22T10:26:14.786Z,19.30
2022-10-22T10:27:14.757Z,19.37
2022-10-22T10:28:14.733Z,19.32
2022-10-22T10:29:14.726Z,19.32
2022-10-22T10:30:14.796Z,19.32
2022-10-22T10:31:14.732Z,19.29
2022-10-22T10:32:14.692Z,19.23
2022-10-22T10:33:14.696Z,19.23
2022-10-22T10:34:14.663Z,19.20
2022-10-22T10:35:14.676Z,19.19
2022-10-22T10:36:14.665Z,19.17
2022-10-22T10:37:14.638Z,19.12
2022-10-22T10:38:14.630Z,19.08
2022-10-22T10:39:14.624Z,19.04
2022-10-22T10:40:14.632Z,19.00
2022-10-22T10:41:14.664Z,18.98
2022-10-22T10:42:14.584Z,18.98
2022-10-22T10:43:14.595Z,19.01
2022-10-22T10:44:14.555Z,19.00
2022-10-22T10:45:14.559Z,19.00
2022-10-22T10:46:14.598Z,19.04
2022-10-22T10:47:14.542Z,19.01
2022-10-22T10:48:14.506Z,19.01
2022-10-22T10:49:14.516Z,19.00
2022-10-22T10:50:14.524Z,18.97
2022-10-22T10:51:14.524Z,19.01
2022-10-22T10:52:18.807Z,19.01
2022-10-22T10:53:15.478Z,19.04
2022-10-22T10:54:14.467Z,19.04
2022-10-22T10:55:14.505Z,19.05
2022-10-22T10:56:14.460Z,19.08
2022-10-22T10:57:14.435Z,19.07
2022-10-22T10:58:14.410Z,18.96
2022-10-22T10:59:14.407Z,18.89
2022-10-22T11:00:14.377Z,18.92
2022-10-22T11:01:14.492Z,18.98
2022-10-22T11:02:14.480Z,19.00
2022-10-22T11:03:14.401Z,19.08
2022-10-22T11:04:14.345Z,19.19
2022-10-22T11:05:14.367Z,19.29
2022-10-22T11:06:14.507Z,19.35
2022-10-22T11:07:30.036Z,19.52
2022-10-22T11:08:15.325Z,19.71
2022-10-22T11:09:14.360Z,19.89
2022-10-22T11:10:14.310Z,19.97
2022-10-22T11:11:14.295Z,20.12
2022-10-22T11:12:14.598Z,20.19
2022-10-22T11:13:14.327Z,20.21
2022-10-22T11:14:14.229Z,20.37
2022-10-22T11:15:14.224Z,20.58
2022-10-22T11:16:14.227Z,20.67
2022-10-22T11:17:14.197Z,20.68
2022-10-22T11:18:14.186Z,20.70
2022-10-22T11:19:22.536Z,20.67
2022-10-22T11:20:15.156Z,20.60
2022-10-22T11:21:14.171Z,20.53
2022-10-22T11:22:14.137Z,20.46
2022-10-22T11:23:19.403Z,20.34
2022-10-22T11:24:16.198Z,20.27
2022-10-22T11:25:14.108Z,20.19
2022-10-22T11:26:14.118Z,20.21
2022-10-22T11:27:14.103Z,20.19
2022-10-22T11:29:14.058Z,20.03
2022-10-22T11:30:14.054Z,19.93
2022-10-22T11:31:14.124Z,19.85
2022-10-22T11:32:14.019Z,19.74
2022-10-22T11:33:14.020Z,19.63
2022-10-22T11:34:32.841Z,19.55
2022-10-22T11:35:15.017Z,19.44
2022-10-22T11:36:13.981Z,19.35
2022-10-22T11:37:14.010Z,19.29
2022-10-22T11:38:13.968Z,19.20
2022-10-22T11:39:13.938Z,19.19
2022-10-22T11:40:13.955Z,19.12
2022-10-22T11:41:13.977Z,19.11
2022-10-22T11:42:13.932Z,19.05
2022-10-22T11:43:13.929Z,18.96
2022-10-22T11:44:13.887Z,18.91
2022-10-22T11:45:13.889Z,18.89
2022-10-22T11:46:13.908Z,18.85
2022-10-22T11:47:13.866Z,18.79
2022-10-22T11:48:13.864Z,18.74
2022-10-22T11:49:13.867Z,18.76
2022-10-22T11:50:13.819Z,18.70
2022-10-22T11:51:13.820Z,18.67
2022-10-22T11:52:13.839Z,18.67
2022-10-22T11:53:13.877Z,18.64
2022-10-22T11:54:13.862Z,18.60
2022-10-22T11:55:13.794Z,18.55
2022-10-22T11:56:13.754Z,18.48
2022-10-22T11:57:13.819Z,18.49
2022-10-22T11:58:13.851Z,18.43
2022-10-22T11:59:13.799Z,18.43
2022-10-22T12:00:13.728Z,18.39
2022-10-22T12:01:13.750Z,18.37
2022-10-22T12:02:13.682Z,18.37
2022-10-22T12:03:13.680Z,18.39
2022-10-22T12:04:13.746Z,18.41
2022-10-22T12:05:13.666Z,18.39
2022-10-22T12:06:13.638Z,18.34
2022-10-22T12:07:13.651Z,18.30
2022-10-22T12:08:15.670Z,18.24
2022-10-22T12:09:13.653Z,18.24
2022-10-22T12:10:16.145Z,18.21
2022-10-22T12:11:13.581Z,18.19
2022-10-22T12:12:13.644Z,18.15
2022-10-22T12:13:13.559Z,18.13
2022-10-22T12:14:13.576Z,18.13
2022-10-22T12:15:13.539Z,18.12
2022-10-22T12:16:14.885Z,18.11
2022-10-22T12:17:13.530Z,18.16
2022-10-22T12:19:13.527Z,18.39
2022-10-22T12:20:13.505Z,18.45
2022-10-22T12:21:13.557Z,18.60
2022-10-22T12:22:13.468Z,18.67
2022-10-22T12:23:13.775Z,18.82
2022-10-22T12:24:13.431Z,18.94
2022-10-22T12:25:13.432Z,19.04
2022-10-22T12:26:13.426Z,19.16
2022-10-22T12:27:14.621Z,19.30
2022-10-22T12:28:13.390Z,19.44
2022-10-22T12:29:13.403Z,19.60
2022-10-22T12:30:13.376Z,19.74
2022-10-22T12:31:13.361Z,19.81
2022-10-22T12:32:13.370Z,19.90
2022-10-22T12:33:13.340Z,20.15
2022-10-22T12:34:13.361Z,20.26
2022-10-22T12:35:13.329Z,20.48
2022-10-22T12:36:13.308Z,21.17
2022-10-22T12:37:13.312Z,21.03
2022-10-22T12:38:13.282Z,20.70
2022-10-22T12:39:13.274Z,20.44
2022-10-22T12:40:13.261Z,20.33
2022-10-22T12:41:13.274Z,20.32
2022-10-22T12:42:13.251Z,20.19
2022-10-22T12:43:13.241Z,20.18
2022-10-22T12:44:13.221Z,20.15
2022-10-22T12:45:13.212Z,20.14
2022-10-22T12:46:13.207Z,20.07
2022-10-22T12:47:13.269Z,20.00
2022-10-22T12:48:13.191Z,19.97
2022-10-22T12:49:13.166Z,20.02
2022-10-22T12:50:13.149Z,20.07
2022-10-22T12:51:13.142Z,20.08
2022-10-22T12:52:14.053Z,20.03
2022-10-22T12:53:13.135Z,19.93
2022-10-22T12:54:13.119Z,19.89
2022-10-22T12:55:13.143Z,19.81
2022-10-22T12:56:13.121Z,19.78
2022-10-22T12:57:13.092Z,19.74
2022-10-22T12:58:13.063Z,19.75